Ludington, MI

2:32 PM EST on November 11, 2019 (GMT -0500)
Mason County

Weather History for KLDM - September, 2019

Change the Weather History Date:

Thursday, September 26, 2019

  Actual Average Record
Temperature  
Mean Temperature 57 °F -  
Max Temperature 65 °F 66 °F 85 °F (2017)
Min Temperature 49 °F 48 °F 30 °F (1966)
Degree Days  
Heating Degree Days 8    
Growing Degree Days 7 (Base 50)    
Moisture  
Dew Point 46 °F    
Average Humidity 61    
Maximum Humidity 87    
Minimum Humidity 46    
Precipitation  
Precipitation 0.00 in - - ()
Sea Level Pressure  
Sea Level Pressure 29.86 in    
Wind  
Wind Speed 9 mph (West)    
Max Wind Speed 15 mph    
Max Gust Speed 22 mph    
Visibility 10 miles    
Events      
Averages and records for this station are not official NWS values.
T = Trace of Precipitation, MM = Missing Value Source: NWS Daily Summary

Daily Weather History Graph

Daily Weather History Graph

Search for Another Location

Airport or City:

Astronomy

Sep. 26, 2019 Rise Set
Actual Time 7:37 AM EDT 7:36 PM EDT
Civil Twilight 7:08 AM EDT 8:04 PM EDT
Nautical Twilight 6:34 AM EDT 8:38 PM EDT
Astronomical Twilight 6:00 AM EDT 9:12 PM EDT
Moon 4:34 AM EDT (9/26) 6:55 PM EDT (9/26)
Length of Visible Light 12h 56m
Length of Day
11h 58m
Waning Crescent, 7% of the Moon is Illuminated
Sep 26
Waning Crescent
Sep 28
New
Oct 5
First Quarter
Oct 13
Full
Oct 21
Last Quarter

Hourly Weather History & Observations

Time (EDT) Temp. Dew Point Humidity Pressure Visibility Wind Dir Wind Speed Gust Speed Precip Events Conditions
12:15 AM 65.5 °F 49.1 °F 55% 29.77 in 10.0 mi West 6.9 mph - N/A   Mostly Cloudy
12:35 AM 65.3 °F 50.0 °F 58% 29.77 in 10.0 mi West 8.1 mph - N/A   Overcast
12:40 AM 65.3 °F 50.2 °F 58% 29.76 in 10.0 mi West 8.1 mph - N/A   Mostly Cloudy
12:58 AM 64.6 °F 49.8 °F 59% 29.75 in 10.0 mi West 4.6 mph 17.3 mph N/A   Scattered Clouds
1:16 AM 64.6 °F 49.1 °F 57% 29.75 in 10.0 mi WNW 10.4 mph 17.3 mph N/A   Mostly Cloudy
1:35 AM 64.2 °F 49.6 °F 59% 29.75 in 10.0 mi West 8.1 mph 18.4 mph N/A   Overcast
1:55 AM 63.7 °F 50.0 °F 61% 29.75 in 10.0 mi West 11.5 mph 16.1 mph N/A   Overcast
2:19 AM 63.5 °F 49.5 °F 60% 29.76 in 10.0 mi West 9.2 mph 18.4 mph N/A   Overcast
2:37 AM 63.1 °F 49.5 °F 61% 29.76 in 10.0 mi West 9.2 mph 20.7 mph N/A   Overcast
2:56 AM 62.6 °F 49.1 °F 61% 29.76 in 10.0 mi West 5.8 mph 18.4 mph N/A   Mostly Cloudy
3:15 AM 61.9 °F 48.9 °F 62% 29.75 in 10.0 mi WNW 8.1 mph 18.4 mph N/A   Scattered Clouds
3:35 AM 61.0 °F 48.7 °F 64% 29.75 in 10.0 mi NW 10.4 mph 19.6 mph N/A   Scattered Clouds
3:58 AM 60.6 °F 47.7 °F 62% 29.75 in 10.0 mi WNW 11.5 mph 17.3 mph N/A   Scattered Clouds
4:16 AM 59.9 °F 47.3 °F 63% 29.75 in 10.0 mi WNW 11.5 mph 16.1 mph N/A   Clear
4:35 AM 59.9 °F 45.7 °F 59% 29.75 in 10.0 mi NW 9.2 mph 20.7 mph N/A   Clear
4:36 AM 59.9 °F 45.5 °F 59% 29.76 in 10.0 mi WNW 9.2 mph 20.7 mph N/A   Clear
4:55 AM 59.5 °F 46.9 °F 63% 29.77 in 10.0 mi NW 12.7 mph 18.4 mph N/A   Clear
5:19 AM 58.3 °F 45.5 °F 62% 29.78 in 10.0 mi NW 12.7 mph 21.9 mph N/A   Clear
5:36 AM 57.9 °F 45.1 °F 62% 29.78 in 10.0 mi NW 12.7 mph 20.7 mph N/A   Clear
5:55 AM 57.4 °F 45.5 °F 65% 29.79 in 10.0 mi WNW 9.2 mph - N/A   Clear
5:56 AM 57.4 °F 45.5 °F 65% 29.79 in 10.0 mi WNW 11.5 mph - N/A   Clear
6:15 AM 57.0 °F 45.5 °F 65% 29.79 in 10.0 mi NW 6.9 mph - N/A   Clear
6:16 AM 57.0 °F 45.5 °F 65% 29.79 in 10.0 mi WNW 6.9 mph - N/A   Clear
6:35 AM 56.7 °F 45.5 °F 66% 29.80 in 10.0 mi WNW 10.4 mph 18.4 mph N/A   Clear
6:40 AM 56.7 °F 45.5 °F 66% 29.81 in 10.0 mi WNW 8.1 mph 18.4 mph N/A   Clear
6:57 AM 56.8 °F 45.5 °F 66% 29.82 in 10.0 mi WNW 8.1 mph 16.1 mph N/A   Clear
7:16 AM 56.5 °F 44.6 °F 64% 29.82 in 10.0 mi NW 9.2 mph 17.3 mph N/A   Clear
7:35 AM 56.5 °F 44.8 °F 65% 29.83 in 10.0 mi NW 10.4 mph 17.3 mph N/A   Clear
7:36 AM 56.3 °F 44.8 °F 65% 29.83 in 10.0 mi NW 11.5 mph 17.3 mph N/A   Clear
7:55 AM 56.5 °F 44.8 °F 65% 29.84 in 10.0 mi NW 11.5 mph 16.1 mph N/A   Clear
7:56 AM 56.5 °F 44.8 °F 65% 29.84 in 10.0 mi WNW 11.5 mph 16.1 mph N/A   Clear
8:19 AM 56.7 °F 44.6 °F 64% 29.86 in 10.0 mi NW 10.4 mph - N/A   Clear
8:37 AM 57.4 °F 44.8 °F 63% 29.86 in 10.0 mi WNW 6.9 mph - N/A   Clear
8:55 AM 58.1 °F 45.7 °F 63% 29.86 in 10.0 mi WNW 8.1 mph 17.3 mph N/A   Clear
9:15 AM 58.5 °F 47.1 °F 66% 29.86 in 10.0 mi West 9.2 mph - N/A   Clear
9:16 AM 58.5 °F 47.1 °F 66% 29.87 in 10.0 mi West 9.2 mph - N/A   Clear
9:35 AM 59.0 °F 46.4 °F 63% 29.87 in 10.0 mi WNW 11.5 mph 17.3 mph N/A   Clear
9:40 AM 59.0 °F 46.4 °F 63% 29.87 in 10.0 mi WNW 11.5 mph 17.3 mph N/A   Clear
9:58 AM 59.5 °F 45.3 °F 59% 29.88 in 10.0 mi WNW 10.4 mph - N/A   Clear
10:16 AM 60.6 °F 47.1 °F 61% 29.88 in 10.0 mi West 8.1 mph 18.4 mph N/A   Clear
10:35 AM 60.4 °F 47.8 °F 63% 29.88 in 10.0 mi West 12.7 mph 20.7 mph N/A   Clear
10:55 AM 59.9 °F 46.6 °F 61% 29.89 in 10.0 mi West 12.7 mph 21.9 mph N/A   Clear
10:56 AM 60.1 °F 46.6 °F 61% 29.89 in 10.0 mi WNW 12.7 mph 21.9 mph N/A   Clear
11:19 AM 60.8 °F 48.2 °F 63% 29.89 in 10.0 mi WNW 10.4 mph 18.4 mph N/A   Scattered Clouds
11:37 AM 61.0 °F 48.4 °F 63% 29.90 in 10.0 mi WNW 13.8 mph 19.6 mph N/A   Scattered Clouds
11:55 AM 61.0 °F 48.4 °F 63% 29.91 in 10.0 mi WNW 10.4 mph 18.4 mph N/A   Scattered Clouds
12:15 PM 60.8 °F 48.4 °F 64% 29.90 in 10.0 mi West 15.0 mph - N/A   Clear
12:35 PM 61.0 °F 47.8 °F 62% 29.91 in 10.0 mi WNW 12.7 mph 19.6 mph N/A   Scattered Clouds
12:40 PM 61.0 °F 48.0 °F 62% 29.91 in 10.0 mi NW 15.0 mph 19.6 mph N/A   Scattered Clouds
12:58 PM 61.2 °F 46.9 °F 60% 29.92 in 10.0 mi WNW 11.5 mph 18.4 mph N/A   Scattered Clouds
1:16 PM 61.3 °F 47.7 °F 61% 29.92 in 10.0 mi West 11.5 mph 16.1 mph N/A   Scattered Clouds
1:35 PM 61.9 °F 46.4 °F 57% 29.92 in 10.0 mi West 11.5 mph 17.3 mph N/A   Scattered Clouds
1:55 PM 61.0 °F 45.0 °F 56% 29.91 in 10.0 mi NW 11.5 mph 17.3 mph N/A   Clear
2:19 PM 61.7 °F 45.1 °F 55% 29.92 in 10.0 mi West 10.4 mph - N/A   Clear
2:37 PM 62.4 °F 45.7 °F 54% 29.92 in 10.0 mi West 6.9 mph - N/A   Clear
2:55 PM 61.9 °F 45.7 °F 55% 29.92 in 10.0 mi WSW 8.1 mph - N/A   Scattered Clouds
2:56 PM 61.9 °F 45.9 °F 56% 29.92 in 10.0 mi West 6.9 mph - N/A   Scattered Clouds
3:15 PM 62.6 °F 44.8 °F 52% 29.92 in 10.0 mi West 9.2 mph - N/A   Scattered Clouds
3:35 PM 62.6 °F 45.1 °F 53% 29.92 in 10.0 mi WNW 8.1 mph 17.3 mph N/A   Clear
3:58 PM 62.6 °F 42.3 °F 47% 29.91 in 10.0 mi West 10.4 mph - N/A   Clear
4:16 PM 63.9 °F 44.6 °F 50% 29.91 in 10.0 mi WSW 11.5 mph - N/A   Clear
4:35 PM 63.7 °F 43.0 °F 47% 29.91 in 10.0 mi West 10.4 mph - N/A   Clear
4:36 PM 63.7 °F 42.6 °F 46% 29.91 in 10.0 mi West 9.2 mph - N/A   Clear
4:55 PM 63.5 °F 43.3 °F 48% 29.90 in 10.0 mi West 9.2 mph - N/A   Clear
4:56 PM 63.7 °F 43.2 °F 47% 29.91 in 10.0 mi West 8.1 mph - N/A   Clear
5:19 PM 63.3 °F 42.8 °F 47% 29.90 in 10.0 mi WSW 8.1 mph - N/A   Clear
5:37 PM 63.7 °F 43.5 °F 48% 29.90 in 10.0 mi WSW 6.9 mph - N/A   Clear
5:56 PM 63.0 °F 43.2 °F 48% 29.89 in 10.0 mi SW 6.9 mph - N/A   Clear
6:15 PM 62.6 °F 43.3 °F 49% 29.89 in 10.0 mi SSW 6.9 mph - N/A   Clear
6:35 PM 62.2 °F 43.2 °F 50% 29.89 in 10.0 mi SSW 6.9 mph - N/A   Clear
6:40 PM 61.9 °F 43.2 °F 50% 29.89 in 10.0 mi SSW 6.9 mph - N/A   Clear
6:58 PM 61.2 °F 44.2 °F 54% 29.89 in 10.0 mi SSW 4.6 mph - N/A   Clear
7:16 PM 59.9 °F 44.1 °F 56% 29.89 in 10.0 mi South 3.5 mph - N/A   Clear
7:35 PM 58.6 °F 45.0 °F 60% 29.89 in 10.0 mi Calm Calm - N/A   Clear
7:55 PM 56.1 °F 47.3 °F 72% 29.89 in 10.0 mi South 3.5 mph - N/A   Clear
8:19 PM 55.4 °F 46.9 °F 73% 29.90 in 10.0 mi South 3.5 mph - N/A   Clear
8:37 PM 56.7 °F 46.4 °F 69% 29.90 in 10.0 mi South 3.5 mph - N/A   Clear
8:55 PM 55.9 °F 46.4 °F 70% 29.90 in 10.0 mi SSE 3.5 mph - N/A   Clear
8:56 PM 55.8 °F 46.4 °F 71% 29.90 in 10.0 mi Calm Calm - N/A   Clear
9:15 PM 56.5 °F 46.4 °F 69% 29.90 in 10.0 mi South 3.5 mph - N/A   Clear
9:35 PM 56.7 °F 45.9 °F 67% 29.90 in 10.0 mi South 4.6 mph - N/A   Clear
9:58 PM 56.5 °F 45.9 °F 68% 29.91 in 10.0 mi South 5.8 mph - N/A   Clear
10:16 PM 56.5 °F 46.0 °F 68% 29.90 in 10.0 mi SSE 5.8 mph - N/A   Clear
10:35 PM 55.6 °F 46.0 °F 70% 29.90 in 10.0 mi SSE 3.5 mph - N/A   Clear
10:36 PM 55.4 °F 46.0 °F 71% 29.90 in 10.0 mi SSE 3.5 mph - N/A   Clear
10:55 PM 49.5 °F 45.9 °F 87% 29.88 in 10.0 mi ESE 3.5 mph - N/A   Clear
11:19 PM 52.3 °F 46.6 °F 81% 29.90 in 10.0 mi Calm Calm - N/A   Clear
11:37 PM 55.8 °F 47.7 °F 74% 29.89 in 10.0 mi South 6.9 mph - N/A   Clear
11:55 PM 57.2 °F 47.7 °F 70% 29.89 in 10.0 mi South 6.9 mph - N/A   Mostly Cloudy
11:56 PM 57.4 °F 47.7 °F 70% 29.89 in 10.0 mi South 6.9 mph - N/A   Mostly Cloudy